createdAt,value
2023-02-06T00:01:36.438Z,4.65
2023-02-06T00:04:05.207Z,5.43
2023-02-06T00:06:35.037Z,5.72
2023-02-06T00:09:03.778Z,5.97
2023-02-06T00:11:32.025Z,5.10
2023-02-06T00:14:00.349Z,4.68
2023-02-06T00:16:30.310Z,5.10
2023-02-06T00:19:00.130Z,6.47
2023-02-06T00:21:30.601Z,5.25
2023-02-06T00:24:02.057Z,6.70
2023-02-06T00:26:31.370Z,5.72
2023-02-06T00:29:00.158Z,5.20
2023-02-06T00:31:28.748Z,4.35
2023-02-06T00:33:56.998Z,6.38
2023-02-06T00:36:25.156Z,4.85
2023-02-06T00:38:53.413Z,5.05
2023-02-06T00:41:23.219Z,6.25
2023-02-06T00:43:51.420Z,4.43
2023-02-06T00:46:19.639Z,5.90
2023-02-06T00:48:47.913Z,5.75
2023-02-06T00:51:16.270Z,5.88
2023-02-06T00:53:44.593Z,6.13
2023-02-06T00:56:12.769Z,7.05
2023-02-06T00:58:42.417Z,5.85
2023-02-06T01:01:10.743Z,5.95
2023-02-06T01:03:38.848Z,4.88
2023-02-06T01:06:07.308Z,5.25
2023-02-06T01:08:35.494Z,6.05
2023-02-06T01:11:09.832Z,5.95
2023-02-06T01:13:38.345Z,5.22
2023-02-06T01:16:10.876Z,5.18
2023-02-06T01:18:39.973Z,3.90
2023-02-06T01:21:10.334Z,5.57
2023-02-06T01:23:39.533Z,5.30
2023-02-06T01:26:08.365Z,4.05
2023-02-06T01:28:37.965Z,5.38
2023-02-06T01:31:13.158Z,4.63
2023-02-06T01:33:41.996Z,7.22
2023-02-06T01:36:10.378Z,6.22
2023-02-06T01:38:39.108Z,5.90
2023-02-06T01:41:08.460Z,6.28
2023-02-06T01:43:41.235Z,4.32
2023-02-06T01:46:10.176Z,3.85
2023-02-06T01:48:42.662Z,4.03
2023-02-06T01:51:15.074Z,5.82
2023-02-06T01:53:46.668Z,3.58
2023-02-06T01:56:19.422Z,5.15
2023-02-06T01:58:52.945Z,5.00
2023-02-06T02:01:22.402Z,4.82
2023-02-06T02:04:00.912Z,3.92
2023-02-06T02:06:29.616Z,3.67
2023-02-06T02:08:58.590Z,3.72
2023-02-06T02:11:33.226Z,3.40
2023-02-06T02:14:02.596Z,3.50
2023-02-06T02:16:43.719Z,3.13
2023-02-06T02:19:39.941Z,3.05
2023-02-06T02:22:41.343Z,3.33
2023-02-06T02:25:23.581Z,3.05
2023-02-06T02:28:18.434Z,4.20
2023-02-06T02:31:10.127Z,3.58
2023-02-06T02:34:11.963Z,3.08
2023-02-06T02:36:46.433Z,3.55
2023-02-06T02:39:20.748Z,3.83
2023-02-06T02:41:57.755Z,3.58
2023-02-06T02:44:32.520Z,4.18
2023-02-06T02:47:06.328Z,3.90
2023-02-06T02:49:36.365Z,3.47
2023-02-06T02:52:06.620Z,5.15
2023-02-06T02:54:34.787Z,5.03
2023-02-06T02:57:07.218Z,4.20
2023-02-06T02:59:38.625Z,3.63
2023-02-06T03:02:11.574Z,4.30
2023-02-06T03:04:43.622Z,4.57
2023-02-06T03:07:21.611Z,3.90
2023-02-06T03:09:56.696Z,3.70
2023-02-06T03:12:35.799Z,3.67
2023-02-06T03:15:10.796Z,2.92
2023-02-06T03:17:45.290Z,3.65
2023-02-06T03:20:15.006Z,3.20
2023-02-06T03:22:49.082Z,3.03
2023-02-06T03:25:24.669Z,4.95
2023-02-06T03:27:55.741Z,2.58
2023-02-06T03:30:26.164Z,2.97
2023-02-06T03:32:57.983Z,2.97
2023-02-06T03:35:31.673Z,3.45
2023-02-06T03:38:01.696Z,4.05
2023-02-06T03:40:30.847Z,2.95
2023-02-06T03:43:01.436Z,3.63
2023-02-06T03:45:31.429Z,3.15
2023-02-06T03:48:02.781Z,2.53
2023-02-06T03:50:33.541Z,3.83
2023-02-06T03:53:05.304Z,2.72
2023-02-06T03:55:34.164Z,3.83
2023-02-06T03:58:05.165Z,3.10
2023-02-06T04:00:33.914Z,3.80
2023-02-06T04:03:02.904Z,3.22
2023-02-06T04:05:31.468Z,3.28
2023-02-06T04:07:59.866Z,2.85
2023-02-06T04:10:29.799Z,3.50
2023-02-06T04:12:58.423Z,3.08
2023-02-06T04:15:27.252Z,2.70
2023-02-06T04:18:01.270Z,2.88
2023-02-06T04:20:30.849Z,3.13
2023-02-06T04:22:59.618Z,2.97
2023-02-06T04:25:29.396Z,3.80
2023-02-06T04:27:57.904Z,3.20
2023-02-06T04:30:26.395Z,3.45
2023-02-06T04:32:54.977Z,3.58
2023-02-06T04:35:23.459Z,3.85
2023-02-06T04:37:51.918Z,3.85
2023-02-06T04:40:20.624Z,3.72
2023-02-06T04:42:50.601Z,3.00
2023-02-06T04:45:19.170Z,2.53
2023-02-06T04:47:49.549Z,3.03
2023-02-06T04:50:18.136Z,2.60
2023-02-06T04:52:46.754Z,2.88
2023-02-06T04:55:15.237Z,3.22
2023-02-06T04:57:43.681Z,2.85
2023-02-06T05:00:15.011Z,2.53
2023-02-06T05:02:43.602Z,3.50
2023-02-06T05:05:12.267Z,3.35
2023-02-06T05:07:40.785Z,3.58
2023-02-06T05:10:10.259Z,3.22
2023-02-06T05:12:38.844Z,3.05
2023-02-06T05:15:07.902Z,3.38
2023-02-06T05:17:37.989Z,3.97
2023-02-06T05:20:07.020Z,3.70
2023-02-06T05:22:35.560Z,4.55
2023-02-06T05:25:04.097Z,3.47
2023-02-06T05:27:32.538Z,4.72
2023-02-06T05:30:01.064Z,3.30
2023-02-06T05:32:29.598Z,2.97
2023-02-06T05:34:59.496Z,3.40
2023-02-06T05:37:28.527Z,3.40
2023-02-06T05:39:59.867Z,4.85
2023-02-06T05:42:28.624Z,1.25
2023-02-06T05:44:57.071Z,4.47
2023-02-06T05:47:26.054Z,5.15
2023-02-06T05:49:54.654Z,4.53
2023-02-06T05:52:24.537Z,3.78
2023-02-06T05:54:53.018Z,5.13
2023-02-06T05:57:21.526Z,5.40
2023-02-06T05:59:49.985Z,5.20
2023-02-06T06:02:18.893Z,4.03
2023-02-06T06:04:47.616Z,5.07
2023-02-06T06:07:16.134Z,6.60
2023-02-06T06:09:46.269Z,6.78
2023-02-06T06:12:14.690Z,6.00
2023-02-06T06:14:42.912Z,6.57
2023-02-06T06:17:11.199Z,5.90
2023-02-06T06:19:39.457Z,6.20
2023-02-06T06:22:07.793Z,4.07
2023-02-06T06:24:36.388Z,4.88
2023-02-06T06:27:08.301Z,4.05
2023-02-06T06:29:36.478Z,6.40
2023-02-06T06:32:04.729Z,4.40
2023-02-06T06:34:33.301Z,6.38
2023-02-06T06:37:04.854Z,5.57
2023-02-06T06:39:33.214Z,3.45
2023-02-06T06:42:01.408Z,4.22
2023-02-06T06:44:31.088Z,5.32
2023-02-06T06:46:59.732Z,5.75
2023-02-06T06:49:29.132Z,5.82
2023-02-06T06:51:57.402Z,6.50
2023-02-06T06:54:25.702Z,5.60
2023-02-06T06:56:53.971Z,7.00
2023-02-06T06:59:22.164Z,4.13
2023-02-06T07:01:52.637Z,5.32
2023-02-06T07:04:21.365Z,4.38
2023-02-06T07:06:49.798Z,4.53
2023-02-06T07:09:18.155Z,5.38
2023-02-06T07:11:46.379Z,4.68
2023-02-06T07:14:14.669Z,5.18
2023-02-06T07:16:43.075Z,4.10
2023-02-06T07:19:12.846Z,4.72
2023-02-06T07:21:41.093Z,5.28
2023-02-06T07:24:09.643Z,5.22
2023-02-06T07:26:37.874Z,4.47
2023-02-06T07:29:06.558Z,5.82
2023-02-06T07:31:35.178Z,4.68
2023-02-06T07:34:03.471Z,4.47
2023-02-06T07:36:33.190Z,4.78
2023-02-06T07:39:03.767Z,5.00
2023-02-06T07:41:32.084Z,5.43
2023-02-06T07:44:00.724Z,5.78
2023-02-06T07:46:29.428Z,5.38
2023-02-06T07:48:57.741Z,6.07
2023-02-06T07:51:26.014Z,6.25
2023-02-06T07:53:55.875Z,5.22
2023-02-06T07:56:25.270Z,5.30
2023-02-06T07:58:54.779Z,6.00
2023-02-06T08:01:23.989Z,6.28
2023-02-06T08:03:53.485Z,6.65
2023-02-06T08:06:24.468Z,5.13
2023-02-06T08:08:55.352Z,6.95
2023-02-06T08:11:28.248Z,7.72
2023-02-06T08:13:56.509Z,6.25
2023-02-06T08:16:25.601Z,5.20
2023-02-06T08:18:55.257Z,5.55
2023-02-06T08:21:26.253Z,5.93
2023-02-06T08:23:59.063Z,6.65
2023-02-06T08:26:30.477Z,5.30
2023-02-06T08:29:01.795Z,6.93
2023-02-06T08:31:32.463Z,6.57
2023-02-06T08:34:01.296Z,5.68
2023-02-06T08:36:31.620Z,6.72
2023-02-06T08:39:00.585Z,10.02
2023-02-06T08:41:32.041Z,9.13
2023-02-06T08:44:01.870Z,8.38
2023-02-06T08:46:32.845Z,9.52
2023-02-06T08:49:02.428Z,9.38
2023-02-06T08:51:30.677Z,8.52
2023-02-06T08:54:01.873Z,9.57
2023-02-06T08:56:32.238Z,7.78
2023-02-06T08:59:01.513Z,7.57
2023-02-06T09:01:30.989Z,8.95
2023-02-06T09:04:00.293Z,7.88
2023-02-06T09:06:29.436Z,7.60
2023-02-06T09:08:58.960Z,7.13
2023-02-06T09:11:28.108Z,6.90
2023-02-06T09:13:58.832Z,7.63
2023-02-06T09:16:28.360Z,8.18
2023-02-06T09:19:01.722Z,9.60
2023-02-06T09:21:31.273Z,8.95
2023-02-06T09:24:00.428Z,8.23
2023-02-06T09:26:29.562Z,7.97
2023-02-06T09:29:00.497Z,9.23
2023-02-06T09:31:30.852Z,8.18
2023-02-06T09:34:00.750Z,9.32
2023-02-06T09:36:30.509Z,9.88
2023-02-06T09:38:59.521Z,8.73
2023-02-06T09:41:31.683Z,9.38
2023-02-06T09:44:05.431Z,11.35
2023-02-06T09:46:35.305Z,9.38
2023-02-06T09:49:04.898Z,11.10
2023-02-06T09:51:40.209Z,10.25
2023-02-06T09:54:17.823Z,10.55
2023-02-06T09:56:49.623Z,11.70
2023-02-06T09:59:25.163Z,10.40
2023-02-06T10:01:59.788Z,10.20
2023-02-06T10:04:42.444Z,11.50
2023-02-06T10:07:18.133Z,12.35
2023-02-06T10:09:50.946Z,13.32
2023-02-06T10:12:21.640Z,12.00
2023-02-06T10:14:52.694Z,14.05
2023-02-06T10:17:22.845Z,15.13
2023-02-06T10:19:53.184Z,15.85
2023-02-06T10:22:27.373Z,14.77
2023-02-06T10:25:02.816Z,12.20
2023-02-06T10:27:34.816Z,15.20
2023-02-06T10:30:05.933Z,15.13
2023-02-06T10:32:43.245Z,15.35
2023-02-06T10:35:24.005Z,15.75
2023-02-06T10:38:20.369Z,18.35
2023-02-06T10:43:30.033Z,11.68
2023-02-06T10:46:14.281Z,14.43
2023-02-06T10:48:47.773Z,16.02
2023-02-06T10:51:21.479Z,12.35
2023-02-06T10:53:52.897Z,13.30
2023-02-06T10:56:27.150Z,14.23
2023-02-06T10:59:00.030Z,14.02
2023-02-06T11:01:33.750Z,13.82
2023-02-06T11:04:06.704Z,13.13
2023-02-06T11:06:35.544Z,10.55
2023-02-06T11:09:05.326Z,11.82
2023-02-06T11:11:34.553Z,12.07
2023-02-06T11:14:06.553Z,12.52
2023-02-06T11:16:38.732Z,11.68
2023-02-06T11:19:17.921Z,13.73
2023-02-06T11:21:51.740Z,10.13
2023-02-06T11:24:21.297Z,12.93
2023-02-06T11:26:52.340Z,10.85
2023-02-06T11:29:22.339Z,14.20
2023-02-06T11:31:53.730Z,15.20
2023-02-06T11:34:25.711Z,17.15
2023-02-06T11:36:56.091Z,13.75
2023-02-06T11:39:30.358Z,13.95
2023-02-06T11:42:04.069Z,15.68
2023-02-06T11:44:39.518Z,17.90
2023-02-06T11:49:58.839Z,18.75
2023-02-06T11:52:31.699Z,14.75
2023-02-06T11:55:02.875Z,17.45
2023-02-06T11:57:34.313Z,16.65
2023-02-06T12:00:06.800Z,14.93
2023-02-06T12:02:38.763Z,15.98
2023-02-06T12:05:15.678Z,13.77
2023-02-06T12:07:47.144Z,13.75
2023-02-06T12:10:17.456Z,10.20
2023-02-06T12:12:49.664Z,12.18
2023-02-06T12:15:44.854Z,11.85
2023-02-06T12:18:16.984Z,11.35
2023-02-06T12:20:52.343Z,10.90
2023-02-06T12:25:55.586Z,10.20
2023-02-06T12:28:27.778Z,11.52
2023-02-06T12:30:58.903Z,9.98
2023-02-06T12:33:36.253Z,9.25
2023-02-06T12:36:12.002Z,10.52
2023-02-06T12:38:46.923Z,9.55
2023-02-06T12:41:41.700Z,9.32
2023-02-06T12:44:21.760Z,9.85
2023-02-06T12:46:56.333Z,11.93
2023-02-06T12:49:31.921Z,10.77
2023-02-06T12:52:06.064Z,9.90
2023-02-06T12:54:42.572Z,14.15
2023-02-06T12:57:17.272Z,12.35
2023-02-06T13:00:13.999Z,11.32
2023-02-06T13:03:06.712Z,11.23
2023-02-06T13:05:39.824Z,11.40
2023-02-06T13:08:12.560Z,9.65
2023-02-06T13:10:41.699Z,11.02
2023-02-06T13:13:27.495Z,12.77
2023-02-06T13:15:57.708Z,11.25
2023-02-06T13:19:03.066Z,8.20
2023-02-06T13:21:35.544Z,8.60
2023-02-06T13:24:19.344Z,6.47
2023-02-06T13:27:12.341Z,8.45
2023-02-06T13:29:42.839Z,7.50
2023-02-06T13:32:46.839Z,7.75
2023-02-06T13:35:26.784Z,5.47
2023-02-06T13:38:28.476Z,6.68
2023-02-06T13:41:32.249Z,7.00
2023-02-06T13:44:05.331Z,6.28
2023-02-06T13:47:08.737Z,5.80
2023-02-06T13:50:24.027Z,5.38
2023-02-06T13:53:07.960Z,5.65
2023-02-06T13:55:58.051Z,5.60
2023-02-06T13:58:40.577Z,6.82
2023-02-06T14:01:15.305Z,4.53
2023-02-06T14:03:49.818Z,5.15
2023-02-06T14:06:31.438Z,5.13
2023-02-06T14:09:08.915Z,4.15
2023-02-06T14:12:12.697Z,6.80
2023-02-06T14:14:53.259Z,5.28
2023-02-06T14:17:34.678Z,4.07
2023-02-06T14:20:12.288Z,4.72
2023-02-06T14:22:50.559Z,4.50
2023-02-06T14:25:33.583Z,3.50
2023-02-06T14:28:13.671Z,3.83
2023-02-06T14:30:51.804Z,3.72
2023-02-06T14:33:47.697Z,4.20
2023-02-06T14:36:33.760Z,5.18
2023-02-06T14:39:40.707Z,4.55
2023-02-06T14:42:13.934Z,4.38
2023-02-06T14:44:45.425Z,4.60
2023-02-06T14:47:19.495Z,4.00
2023-02-06T14:49:48.957Z,3.60
2023-02-06T14:52:21.115Z,4.05
2023-02-06T14:54:49.749Z,3.15
2023-02-06T14:57:22.496Z,3.80
2023-02-06T14:59:58.562Z,2.88
2023-02-06T15:02:31.483Z,2.92
2023-02-06T15:05:02.015Z,2.80
2023-02-06T15:07:33.447Z,3.58
2023-02-06T15:10:06.873Z,4.80
2023-02-06T15:12:35.999Z,3.65
2023-02-06T15:15:17.692Z,3.60
2023-02-06T15:17:57.646Z,3.60
2023-02-06T15:20:32.497Z,4.25
2023-02-06T15:23:17.294Z,3.92
2023-02-06T15:26:03.516Z,4.50
2023-02-06T15:28:34.355Z,4.13
2023-02-06T15:31:04.304Z,3.65
2023-02-06T15:33:36.036Z,4.30
2023-02-06T15:36:05.544Z,3.88
2023-02-06T15:38:35.193Z,4.72
2023-02-06T15:41:06.462Z,5.00
2023-02-06T15:43:35.638Z,4.03
2023-02-06T15:46:07.203Z,3.95
2023-02-06T15:48:40.983Z,4.22
2023-02-06T15:51:24.759Z,3.63
2023-02-06T15:53:56.045Z,3.78
2023-02-06T15:56:26.694Z,4.63
2023-02-06T15:59:03.271Z,4.63
2023-02-06T16:01:37.265Z,3.20
2023-02-06T16:04:08.005Z,3.72
2023-02-06T16:06:37.509Z,4.35
2023-02-06T16:09:08.856Z,3.78
2023-02-06T16:11:47.984Z,4.05
2023-02-06T16:14:22.811Z,4.65
2023-02-06T16:17:01.054Z,4.22
2023-02-06T16:19:39.250Z,4.55
2023-02-06T16:22:16.333Z,3.20
2023-02-06T16:24:44.884Z,4.28
2023-02-06T16:27:19.468Z,3.83
2023-02-06T16:29:51.195Z,3.37
2023-02-06T16:32:24.469Z,3.42
2023-02-06T16:34:53.299Z,4.88
2023-02-06T16:37:23.845Z,6.13
2023-02-06T16:39:52.502Z,5.85
2023-02-06T16:42:23.096Z,4.78
2023-02-06T16:44:53.852Z,4.38
2023-02-06T16:47:24.329Z,4.55
2023-02-06T16:49:53.015Z,3.85
2023-02-06T16:52:25.893Z,3.70
2023-02-06T16:54:55.887Z,3.67
2023-02-06T16:57:29.327Z,3.90
2023-02-06T16:59:58.340Z,3.40
2023-02-06T17:02:29.236Z,3.65
2023-02-06T17:04:57.896Z,3.25
2023-02-06T17:07:28.590Z,3.55
2023-02-06T17:09:58.010Z,3.80
2023-02-06T17:12:26.573Z,4.40
2023-02-06T17:14:54.974Z,4.40
2023-02-06T17:17:24.440Z,4.05
2023-02-06T17:19:54.371Z,3.97
2023-02-06T17:22:22.812Z,3.17
2023-02-06T17:24:51.132Z,3.83
2023-02-06T17:27:21.798Z,3.75
2023-02-06T17:29:50.470Z,4.90
2023-02-06T17:32:22.457Z,4.28
2023-02-06T17:34:54.452Z,5.05
2023-02-06T17:37:22.803Z,4.50
2023-02-06T17:39:52.373Z,5.63
2023-02-06T17:42:22.062Z,5.13
2023-02-06T17:44:50.777Z,5.30
2023-02-06T17:47:19.430Z,4.63
2023-02-06T17:49:48.007Z,5.10
2023-02-06T17:52:18.314Z,5.15
2023-02-06T17:54:46.569Z,4.75
2023-02-06T17:57:15.098Z,4.93
2023-02-06T17:59:43.376Z,5.13
2023-02-06T18:02:14.405Z,4.85
2023-02-06T18:04:42.709Z,5.28
2023-02-06T18:07:11.076Z,5.47
2023-02-06T18:09:42.168Z,4.55
2023-02-06T18:12:10.677Z,4.93
2023-02-06T18:14:39.889Z,5.18
2023-02-06T18:17:09.305Z,5.20
2023-02-06T18:19:42.218Z,6.18
2023-02-06T18:22:11.964Z,5.70
2023-02-06T18:24:42.218Z,5.22
2023-02-06T18:27:11.280Z,5.63
2023-02-06T18:29:49.463Z,6.07
2023-02-06T18:32:18.965Z,4.80
2023-02-06T18:34:47.805Z,5.18
2023-02-06T18:37:16.268Z,4.80
2023-02-06T18:39:45.958Z,6.22
2023-02-06T18:42:31.573Z,5.65
2023-02-06T18:44:59.921Z,5.32
2023-02-06T18:47:28.201Z,5.90
2023-02-06T18:49:56.419Z,5.13
2023-02-06T18:52:24.767Z,4.43
2023-02-06T18:54:54.317Z,6.10
2023-02-06T18:57:22.534Z,6.63
2023-02-06T18:59:50.742Z,6.07
2023-02-06T19:02:19.291Z,4.90
2023-02-06T19:04:47.561Z,5.35
2023-02-06T19:07:16.718Z,6.25
2023-02-06T19:09:45.399Z,5.97
2023-02-06T19:12:15.035Z,6.57
2023-02-06T19:14:43.368Z,5.72
2023-02-06T19:17:11.818Z,4.88
2023-02-06T19:19:40.444Z,5.22
2023-02-06T19:22:08.605Z,5.20
2023-02-06T19:24:37.947Z,5.22
2023-02-06T19:27:06.320Z,5.75
2023-02-06T19:29:36.753Z,7.22
2023-02-06T19:32:06.082Z,7.35
2023-02-06T19:34:36.531Z,7.97
2023-02-06T19:37:05.274Z,7.60
2023-02-06T19:39:34.468Z,7.00
2023-02-06T19:42:04.594Z,7.00
2023-02-06T19:44:36.476Z,7.45
2023-02-06T19:47:05.358Z,8.93
2023-02-06T19:49:34.135Z,8.48
2023-02-06T19:52:02.810Z,6.50
2023-02-06T19:54:31.655Z,6.30
2023-02-06T19:57:01.297Z,6.88
2023-02-06T19:59:30.855Z,6.18
2023-02-06T20:02:02.477Z,6.70
2023-02-06T20:04:32.412Z,8.80
2023-02-06T20:07:01.151Z,8.73
2023-02-06T20:09:30.475Z,8.18
2023-02-06T20:11:59.055Z,8.00
2023-02-06T20:14:28.023Z,7.65
2023-02-06T20:16:56.379Z,5.72
2023-02-06T20:19:28.285Z,6.18
2023-02-06T20:21:58.746Z,7.00
2023-02-06T20:24:30.196Z,7.35
2023-02-06T20:27:00.887Z,6.65
2023-02-06T20:29:31.568Z,6.50
2023-02-06T20:32:00.301Z,6.43
2023-02-06T20:34:30.194Z,5.63
2023-02-06T20:36:59.316Z,5.50
2023-02-06T20:39:28.792Z,5.53
2023-02-06T20:41:57.406Z,7.55
2023-02-06T20:44:26.394Z,6.65
2023-02-06T20:46:54.937Z,7.90
2023-02-06T20:49:25.273Z,7.45
2023-02-06T20:51:55.176Z,8.48
2023-02-06T20:54:23.946Z,8.35
2023-02-06T20:56:52.652Z,8.88
2023-02-06T20:59:21.807Z,7.90
2023-02-06T21:01:50.102Z,9.27
2023-02-06T21:04:19.423Z,7.97
2023-02-06T21:06:50.113Z,8.95
2023-02-06T21:09:20.038Z,8.55
2023-02-06T21:11:50.255Z,11.82
2023-02-06T21:14:18.866Z,8.82
2023-02-06T21:16:47.772Z,7.65
2023-02-06T21:19:18.730Z,8.85
2023-02-06T21:21:47.763Z,8.50
2023-02-06T21:24:16.521Z,9.07
2023-02-06T21:26:46.150Z,9.23
2023-02-06T21:29:15.837Z,8.77
2023-02-06T21:31:44.582Z,7.57
2023-02-06T21:34:17.205Z,10.00
2023-02-06T21:36:45.846Z,8.73
2023-02-06T21:39:18.633Z,9.50
2023-02-06T21:41:51.819Z,9.05
2023-02-06T21:44:20.186Z,7.28
2023-02-06T21:46:48.389Z,8.98
2023-02-06T21:49:16.992Z,8.27
2023-02-06T21:51:45.577Z,8.27
2023-02-06T21:54:13.891Z,10.07
2023-02-06T21:56:42.336Z,9.95
2023-02-06T21:59:13.612Z,10.10
2023-02-06T22:01:41.907Z,12.93
2023-02-06T22:04:11.885Z,14.23
2023-02-06T22:06:40.417Z,13.90
2023-02-06T22:09:10.313Z,10.95
2023-02-06T22:11:40.803Z,12.98
2023-02-06T22:14:11.691Z,10.38
2023-02-06T22:16:40.062Z,11.90
2023-02-06T22:19:08.942Z,9.18
2023-02-06T22:21:37.461Z,10.73
2023-02-06T22:24:07.680Z,11.70
2023-02-06T22:26:38.898Z,11.93
2023-02-06T22:29:08.364Z,10.18
2023-02-06T22:31:40.390Z,9.90
2023-02-06T22:34:11.904Z,9.43
2023-02-06T22:36:41.671Z,9.23
2023-02-06T22:39:12.623Z,7.97
2023-02-06T22:41:41.722Z,9.23
2023-02-06T22:44:11.642Z,10.50
2023-02-06T22:46:41.497Z,12.07
2023-02-06T22:49:10.773Z,10.35
2023-02-06T22:51:40.046Z,11.60
2023-02-06T22:54:09.921Z,12.60
2023-02-06T22:56:39.720Z,14.45
2023-02-06T22:59:10.375Z,15.15
2023-02-06T23:01:42.113Z,13.05
2023-02-06T23:04:14.012Z,11.43
2023-02-06T23:06:42.977Z,10.55
2023-02-06T23:09:14.823Z,12.85
2023-02-06T23:11:43.642Z,10.40
2023-02-06T23:14:13.307Z,12.07
2023-02-06T23:16:43.148Z,10.60
2023-02-06T23:19:13.401Z,11.60
2023-02-06T23:21:43.604Z,9.48
2023-02-06T23:24:12.971Z,11.65
2023-02-06T23:26:43.583Z,10.38
2023-02-06T23:29:15.789Z,11.05
2023-02-06T23:31:45.825Z,8.38
2023-02-06T23:34:14.504Z,10.30
2023-02-06T23:36:42.824Z,14.73
2023-02-06T23:39:12.025Z,12.60
2023-02-06T23:41:40.269Z,10.82
2023-02-06T23:44:09.548Z,9.15
2023-02-06T23:46:39.219Z,8.02
2023-02-06T23:49:09.446Z,8.73
2023-02-06T23:51:39.004Z,8.63
2023-02-06T23:54:07.989Z,11.77
2023-02-06T23:56:36.752Z,10.25
2023-02-06T23:59:06.936Z,13.60
